Česky Dansk Deutsch English Español Suomi Français Magyar Italiano Nederlands norsk Polski Português svenska Türkçe

 

Het Weer

Palanga Intl. (Litouwen)

04:20, 23 augustus 2016 (GMT)

NWNNE
WE
SWSSE
Home            
Palanga Intl. Liepaja International Airport Kaliningrad/Khrabrovo Airport Siauliai Intl./Mil. Ventspils Riga International Airport Kaunas Riga Gdansk-Rebiechowo Visby Flygplats Kuressaare Vilnius Slupsk Kalmar Grodno Parnu Kardla Ronneby Hultsfred Swedish Air Force Base Koszalin Vaxjo Stockholm/Skavsta Roenne

Om een weerknop op uw website of weblog te plaatsen, copieer onderstaande code en plak die in uw pagina. In het eerste vakje staat HTML-code, in het tweede vakje UBB-code.


Add to Google

Details

Wind speed:1 bf, 3 kn, 1.5 m/s, 3.5 miles/h, 5.6 km/h
Wind direction:S, 170° - WSW, 250°
Visibility:Greater than 10000 m, 10 km, 32800 ft, 6.2 miles
Clouds:Aufgelockert bewölkt at 1200 ft, 366 m
Temperature:17°C, 63°F
Dew-point:16°C, 61°F
Atmospheric pressure:1023 hPa, 767.3 mmHg, 30.21 inHg, 1.010 atm
Relative humidity:93.8 %
METAR:EYPA 230420Z 21003KT 170V250 9999 SCT012 17/16 Q1023

Snelkoppelingen

Actuele weersinformatie van de hele wereld. Voeg locaties toe met het plus (+) symbool. Deze snelkoppelingen kunnen worden toegevoegd aan Google.

Lid van de Technetium groep

website free tracking
StatCounter NetStat W3C Validator

27-10-2020 12:59:03
astro.technetium.be money.technetium.be phote.technetium.be tafeltennistafel.technetium.be www.ligfiets.net